createdAt,value
2023-09-27T00:00:37.917Z,66.56
2023-09-27T00:03:32.908Z,66.36
2023-09-27T00:06:19.551Z,62.89
2023-09-27T00:09:09.239Z,58.13
2023-09-27T00:11:56.276Z,56.77
2023-09-27T00:14:42.835Z,58.91
2023-09-27T00:17:30.498Z,62.41
2023-09-27T00:20:17.605Z,68.09
2023-09-27T00:23:04.743Z,63.38
2023-09-27T00:25:51.895Z,60.10
2023-09-27T00:28:38.586Z,55.97
2023-09-27T00:31:25.352Z,56.81
2023-09-27T00:34:12.077Z,58.87
2023-09-27T00:36:58.872Z,64.78
2023-09-27T00:39:45.565Z,65.05
2023-09-27T00:42:32.137Z,60.71
2023-09-27T00:45:19.494Z,56.23
2023-09-27T00:48:06.630Z,55.94
2023-09-27T00:50:54.536Z,58.24
2023-09-27T00:53:43.872Z,60.06
2023-09-27T00:56:30.953Z,67.67
2023-09-27T00:59:18.897Z,67.10
2023-09-27T01:02:07.060Z,63.00
2023-09-27T01:04:54.034Z,61.29
2023-09-27T01:07:41.717Z,56.12
2023-09-27T01:10:29.574Z,55.38
2023-09-27T01:13:16.577Z,59.24
2023-09-27T01:16:03.182Z,65.46
2023-09-27T01:18:49.980Z,65.47
2023-09-27T01:21:36.782Z,61.02
2023-09-27T01:24:23.680Z,56.70
2023-09-27T01:27:10.782Z,55.89
2023-09-27T01:29:58.406Z,57.07
2023-09-27T01:32:45.090Z,61.31
2023-09-27T01:35:32.716Z,67.52
2023-09-27T01:38:19.769Z,67.25
2023-09-27T01:41:06.530Z,63.07
2023-09-27T01:43:52.779Z,59.91
2023-09-27T01:46:39.929Z,55.69
2023-09-27T01:49:27.242Z,55.54
2023-09-27T01:52:14.012Z,57.62
2023-09-27T01:55:00.798Z,65.09
2023-09-27T01:57:48.194Z,65.78
2023-09-27T02:00:34.815Z,62.07
2023-09-27T02:03:21.394Z,56.51
2023-09-27T02:06:07.958Z,55.32
2023-09-27T02:08:54.766Z,56.77
2023-09-27T02:11:41.688Z,59.41
2023-09-27T02:14:28.843Z,68.47
2023-09-27T02:17:15.897Z,65.60
2023-09-27T02:20:08.839Z,61.12
2023-09-27T02:22:56.012Z,56.39
2023-09-27T02:25:43.040Z,55.83
2023-09-27T02:28:29.580Z,58.09
2023-09-27T02:31:16.486Z,60.44
2023-09-27T02:34:02.969Z,68.76
2023-09-27T02:36:50.078Z,66.46
2023-09-27T02:39:36.479Z,62.45
2023-09-27T02:42:23.021Z,58.98
2023-09-27T02:45:11.533Z,56.53
2023-09-27T02:48:00.022Z,57.74
2023-09-27T02:50:50.664Z,60.00
2023-09-27T02:53:37.334Z,69.29
2023-09-27T02:56:24.817Z,66.76
2023-09-27T02:59:12.559Z,62.25
2023-09-27T03:01:59.872Z,60.05
2023-09-27T03:04:48.685Z,56.92
2023-09-27T03:07:35.479Z,57.46
2023-09-27T03:10:22.162Z,60.03
2023-09-27T03:13:10.854Z,67.14
2023-09-27T03:15:58.457Z,65.93
2023-09-27T03:18:45.087Z,62.27
2023-09-27T03:21:32.186Z,60.20
2023-09-27T03:24:19.205Z,56.43
2023-09-27T03:27:06.159Z,57.20
2023-09-27T03:29:52.914Z,58.84
2023-09-27T03:32:39.614Z,67.38
2023-09-27T03:35:26.491Z,66.19
2023-09-27T03:38:13.060Z,62.15
2023-09-27T03:40:59.652Z,59.97
2023-09-27T03:43:47.608Z,56.70
2023-09-27T03:46:34.022Z,58.19
2023-09-27T03:49:21.442Z,60.34
2023-09-27T03:52:09.190Z,68.12
2023-09-27T03:54:56.397Z,65.59
2023-09-27T03:57:42.966Z,61.81
2023-09-27T04:00:29.800Z,60.34
2023-09-27T04:03:17.785Z,56.66
2023-09-27T04:06:05.000Z,57.14
2023-09-27T04:08:52.704Z,60.18
2023-09-27T04:11:39.654Z,67.31
2023-09-27T04:14:26.074Z,65.53
2023-09-27T04:17:12.503Z,61.96
2023-09-27T04:19:59.256Z,60.22
2023-09-27T04:22:48.461Z,56.51
2023-09-27T04:25:34.992Z,57.78
2023-09-27T04:28:21.613Z,59.52
2023-09-27T04:31:08.412Z,67.98
2023-09-27T04:33:54.620Z,65.78
2023-09-27T04:36:41.622Z,61.91
2023-09-27T04:39:32.315Z,59.86
2023-09-27T04:42:18.721Z,56.02
2023-09-27T04:45:06.302Z,57.74
2023-09-27T04:47:53.491Z,60.09
2023-09-27T04:50:41.189Z,67.91
2023-09-27T04:53:28.087Z,64.92
2023-09-27T04:56:14.671Z,61.40
2023-09-27T04:59:02.960Z,59.63
2023-09-27T05:01:49.416Z,56.44
2023-09-27T05:04:36.544Z,57.90
2023-09-27T05:07:24.007Z,59.76
2023-09-27T05:10:11.044Z,67.63
2023-09-27T05:12:58.002Z,64.91
2023-09-27T05:15:50.804Z,61.62
2023-09-27T05:18:37.467Z,59.88
2023-09-27T05:21:24.154Z,56.58
2023-09-27T05:24:10.950Z,57.87
2023-09-27T05:27:00.603Z,61.07
2023-09-27T05:29:48.166Z,67.25
2023-09-27T05:32:34.732Z,64.99
2023-09-27T05:35:21.818Z,61.73
2023-09-27T05:38:08.382Z,59.90
2023-09-27T05:40:55.095Z,56.15
2023-09-27T05:43:41.715Z,57.44
2023-09-27T05:46:30.090Z,60.21
2023-09-27T05:49:18.134Z,67.31
2023-09-27T05:52:04.868Z,65.02
2023-09-27T05:54:52.668Z,61.63
2023-09-27T05:57:39.922Z,59.64
2023-09-27T06:00:28.500Z,56.35
2023-09-27T06:03:15.517Z,58.53
2023-09-27T06:06:04.636Z,60.30
2023-09-27T06:08:52.930Z,67.97
2023-09-27T06:11:40.034Z,65.45
2023-09-27T06:14:26.440Z,61.66
2023-09-27T06:17:17.309Z,60.30
2023-09-27T06:20:13.393Z,56.90
2023-09-27T06:23:04.873Z,58.23
2023-09-27T06:25:52.455Z,59.26
2023-09-27T06:28:39.637Z,67.70
2023-09-27T06:31:26.311Z,65.94
2023-09-27T06:34:12.728Z,62.02
2023-09-27T06:36:59.656Z,60.07
2023-09-27T06:39:46.023Z,56.52
2023-09-27T06:42:32.433Z,57.61
2023-09-27T06:45:19.791Z,60.05
2023-09-27T06:48:06.581Z,66.72
2023-09-27T06:50:53.404Z,63.78
2023-09-27T06:53:39.883Z,60.99
2023-09-27T06:56:26.693Z,57.13
2023-09-27T06:59:13.315Z,57.27
2023-09-27T07:02:00.485Z,59.75
2023-09-27T07:04:47.649Z,66.16
2023-09-27T07:07:34.760Z,62.94
2023-09-27T07:10:22.797Z,59.91
2023-09-27T07:13:09.714Z,55.53
2023-09-27T07:15:56.111Z,57.25
2023-09-27T07:18:43.565Z,60.11
2023-09-27T07:21:31.683Z,65.25
2023-09-27T07:24:18.473Z,62.93
2023-09-27T07:27:05.091Z,58.37
2023-09-27T07:29:52.672Z,56.19
2023-09-27T07:32:40.896Z,58.98
2023-09-27T07:35:33.817Z,64.39
2023-09-27T07:38:20.344Z,62.05
2023-09-27T07:41:11.782Z,56.76
2023-09-27T07:43:58.641Z,57.21
2023-09-27T07:46:45.898Z,59.54
2023-09-27T07:49:32.609Z,65.12
2023-09-27T07:52:19.151Z,62.30
2023-09-27T07:55:06.681Z,56.82
2023-09-27T07:57:54.212Z,57.25
2023-09-27T08:00:41.863Z,59.93
2023-09-27T08:03:29.274Z,64.82
2023-09-27T08:06:17.825Z,62.21
2023-09-27T08:09:08.303Z,59.02
2023-09-27T08:11:56.169Z,55.59
2023-09-27T08:14:43.248Z,58.20
2023-09-27T08:17:31.189Z,58.58
2023-09-27T08:20:20.004Z,64.28
2023-09-27T08:23:07.194Z,61.19
2023-09-27T08:25:54.424Z,55.61
2023-09-27T08:28:41.166Z,56.01
2023-09-27T08:31:27.918Z,58.31
2023-09-27T08:34:14.710Z,59.54
2023-09-27T08:37:01.783Z,64.36
2023-09-27T08:39:48.858Z,59.86
2023-09-27T08:42:35.479Z,55.19
2023-09-27T08:45:24.099Z,56.39
2023-09-27T08:48:13.420Z,58.24
2023-09-27T08:51:05.968Z,59.19
2023-09-27T08:53:52.411Z,62.02
2023-09-27T08:56:39.708Z,63.55
2023-09-27T08:59:26.565Z,58.37
2023-09-27T09:02:15.156Z,55.28
2023-09-27T09:05:05.250Z,57.84
2023-09-27T09:07:52.098Z,59.43
2023-09-27T09:10:39.277Z,59.54
2023-09-27T09:13:25.793Z,63.55
2023-09-27T09:16:16.013Z,60.35
2023-09-27T09:19:29.253Z,54.34
2023-09-27T09:22:28.919Z,54.88
2023-09-27T09:25:15.305Z,57.09
2023-09-27T09:28:14.210Z,57.93
2023-09-27T09:31:01.022Z,59.60
2023-09-27T09:34:04.007Z,59.66
2023-09-27T09:36:52.960Z,64.35
2023-09-27T09:39:39.712Z,57.72
2023-09-27T09:42:33.951Z,55.31
2023-09-27T09:45:21.402Z,57.83
2023-09-27T09:48:08.167Z,57.05
2023-09-27T09:51:04.479Z,58.81
2023-09-27T09:53:52.948Z,59.84
2023-09-27T09:56:53.277Z,60.15
2023-09-27T09:59:59.017Z,60.15
2023-09-27T10:02:59.678Z,62.24
2023-09-27T10:05:46.925Z,62.36
2023-09-27T10:08:39.806Z,54.69
2023-09-27T10:11:27.495Z,53.29
2023-09-27T10:14:15.758Z,56.17
2023-09-27T10:17:02.337Z,55.96
2023-09-27T10:20:14.993Z,55.82
2023-09-27T10:23:11.872Z,57.36
2023-09-27T10:26:19.963Z,56.63
2023-09-27T10:32:43.723Z,58.77
2023-09-27T10:35:30.403Z,57.79
2023-09-27T10:38:17.182Z,58.14
2023-09-27T10:41:04.616Z,55.91
2023-09-27T10:43:51.553Z,54.21
2023-09-27T10:46:42.282Z,55.79
2023-09-27T10:49:40.023Z,56.04
2023-09-27T10:52:28.139Z,56.06
2023-09-27T10:55:15.661Z,55.20
2023-09-27T10:58:02.373Z,54.72
2023-09-27T11:01:05.003Z,52.98
2023-09-27T11:04:05.063Z,53.17
2023-09-27T11:06:53.221Z,53.88
2023-09-27T11:09:46.013Z,55.61
2023-09-27T11:12:32.701Z,53.82
2023-09-27T11:15:25.350Z,54.74
2023-09-27T11:18:12.908Z,55.35
2023-09-27T11:21:11.634Z,54.85
2023-09-27T11:24:00.337Z,54.26
2023-09-27T11:26:47.162Z,55.06
2023-09-27T11:29:33.926Z,54.53
2023-09-27T11:32:21.706Z,54.27
2023-09-27T11:35:09.185Z,54.66
2023-09-27T11:38:14.628Z,54.47
2023-09-27T11:41:07.756Z,54.43
2023-09-27T11:43:54.841Z,54.37
2023-09-27T11:46:41.838Z,54.41
2023-09-27T11:49:28.287Z,52.94
2023-09-27T11:52:14.860Z,53.00
2023-09-27T11:55:01.265Z,51.59
2023-09-27T11:57:48.038Z,50.44
2023-09-27T12:00:34.146Z,49.97
2023-09-27T12:03:20.809Z,47.24
2023-09-27T12:06:08.497Z,46.33
2023-09-27T12:08:55.878Z,46.93
2023-09-27T12:11:43.045Z,45.43
2023-09-27T12:14:29.684Z,45.00
2023-09-27T12:17:19.484Z,45.55
2023-09-27T12:20:09.229Z,44.03
2023-09-27T12:22:59.886Z,42.32
2023-09-27T12:25:46.460Z,43.15
2023-09-27T12:28:35.126Z,42.86
2023-09-27T12:31:22.874Z,41.77
2023-09-27T12:34:09.301Z,41.59
2023-09-27T12:36:56.226Z,39.66
2023-09-27T12:39:43.142Z,40.19
2023-09-27T12:42:29.887Z,40.99
2023-09-27T12:45:16.152Z,38.42
2023-09-27T12:48:02.767Z,38.39
2023-09-27T12:50:49.815Z,37.41
2023-09-27T12:53:36.862Z,37.61
2023-09-27T12:56:23.741Z,36.80
2023-09-27T12:59:10.537Z,37.45
2023-09-27T13:01:57.143Z,36.45
2023-09-27T13:04:44.680Z,35.94
2023-09-27T13:07:31.345Z,34.98
2023-09-27T13:10:18.385Z,35.35
2023-09-27T13:13:04.804Z,33.78
2023-09-27T13:15:51.287Z,33.60
2023-09-27T13:18:38.033Z,30.08
2023-09-27T13:21:26.005Z,31.01
2023-09-27T13:24:13.866Z,30.54
2023-09-27T13:27:00.648Z,30.72
2023-09-27T13:29:47.375Z,30.73
2023-09-27T13:32:35.020Z,30.30
2023-09-27T13:35:22.655Z,30.51
2023-09-27T13:38:11.868Z,30.38
2023-09-27T13:40:59.612Z,31.09
2023-09-27T13:43:46.444Z,30.58
2023-09-27T13:46:33.090Z,29.62
2023-09-27T13:49:19.766Z,29.58
2023-09-27T13:52:06.842Z,29.26
2023-09-27T13:54:53.868Z,30.16
2023-09-27T13:57:41.117Z,30.60
2023-09-27T14:00:27.736Z,30.49
2023-09-27T14:03:15.181Z,29.66
2023-09-27T14:06:01.950Z,29.89
2023-09-27T14:08:48.956Z,28.94
2023-09-27T14:11:36.923Z,29.30
2023-09-27T14:14:23.805Z,27.99
2023-09-27T14:17:10.562Z,28.12
2023-09-27T14:19:57.059Z,28.69
2023-09-27T14:22:45.273Z,27.96
2023-09-27T14:25:33.424Z,27.71
2023-09-27T14:28:20.095Z,27.43
2023-09-27T14:31:06.949Z,26.98
2023-09-27T14:33:54.006Z,27.04
2023-09-27T14:36:41.316Z,26.82
2023-09-27T14:39:28.874Z,26.88
2023-09-27T14:42:15.414Z,26.35
2023-09-27T14:45:02.893Z,26.53
2023-09-27T14:47:53.139Z,26.18
2023-09-27T14:50:39.671Z,26.17
2023-09-27T14:53:26.381Z,25.84
2023-09-27T14:56:14.205Z,26.43
2023-09-27T14:59:02.510Z,26.06
2023-09-27T15:01:49.538Z,26.43
2023-09-27T15:04:36.425Z,25.67
2023-09-27T15:07:23.466Z,25.76
2023-09-27T15:10:11.326Z,25.39
2023-09-27T15:12:57.733Z,25.85
2023-09-27T15:15:45.066Z,25.73
2023-09-27T15:18:32.380Z,25.81
2023-09-27T15:21:19.179Z,26.60
2023-09-27T15:24:05.691Z,26.81
2023-09-27T15:26:54.669Z,26.97
2023-09-27T15:29:41.263Z,27.42
2023-09-27T15:32:27.998Z,27.73
2023-09-27T15:35:15.484Z,28.11
2023-09-27T15:38:02.265Z,28.47
2023-09-27T15:40:49.330Z,29.35
2023-09-27T15:43:36.664Z,30.31
2023-09-27T15:46:24.505Z,31.61
2023-09-27T15:49:11.275Z,33.03
2023-09-27T15:51:58.727Z,33.93
2023-09-27T15:54:45.374Z,34.93
2023-09-27T15:57:32.611Z,35.42
2023-09-27T16:00:19.002Z,36.54
2023-09-27T16:03:05.726Z,37.42
2023-09-27T16:05:53.142Z,38.91
2023-09-27T16:08:39.846Z,39.84
2023-09-27T16:11:30.943Z,41.59
2023-09-27T16:14:17.267Z,42.15
2023-09-27T16:17:03.791Z,42.95
2023-09-27T16:25:11.455Z,43.48
2023-09-27T16:28:16.308Z,44.27
2023-09-27T16:31:21.795Z,45.26
2023-09-27T16:34:08.988Z,46.27
2023-09-27T16:36:58.462Z,47.45
2023-09-27T16:39:45.622Z,48.73
2023-09-27T16:42:32.781Z,50.02
2023-09-27T16:45:19.805Z,49.02
2023-09-27T16:48:07.060Z,49.99
2023-09-27T16:50:54.108Z,51.04
2023-09-27T16:53:41.053Z,51.18
2023-09-27T16:56:28.173Z,51.62
2023-09-27T16:59:16.860Z,52.20
2023-09-27T17:02:04.567Z,52.91
2023-09-27T17:04:51.607Z,53.86
2023-09-27T17:07:39.482Z,54.14
2023-09-27T17:10:26.306Z,54.59
2023-09-27T17:13:13.506Z,55.00
2023-09-27T17:16:00.678Z,55.34
2023-09-27T17:18:48.352Z,56.04
2023-09-27T17:21:35.694Z,58.68
2023-09-27T17:24:23.311Z,59.45
2023-09-27T17:27:10.434Z,57.66
2023-09-27T17:29:58.067Z,57.90
2023-09-27T17:32:45.704Z,58.15
2023-09-27T17:35:32.707Z,58.59
2023-09-27T17:38:20.217Z,59.09
2023-09-27T17:41:08.962Z,59.63
2023-09-27T17:43:56.251Z,59.67
2023-09-27T17:46:43.828Z,60.02
2023-09-27T17:49:30.886Z,60.30
2023-09-27T17:52:17.912Z,60.62
2023-09-27T17:55:06.070Z,60.94
2023-09-27T17:57:53.503Z,65.76
2023-09-27T18:00:41.777Z,69.28
2023-09-27T18:03:29.590Z,62.69
2023-09-27T18:06:16.666Z,57.27
2023-09-27T18:09:04.027Z,54.86
2023-09-27T18:11:50.631Z,55.18
2023-09-27T18:14:38.438Z,56.16
2023-09-27T18:17:26.018Z,56.97
2023-09-27T18:20:13.259Z,58.90
2023-09-27T18:23:00.415Z,58.87
2023-09-27T18:25:48.396Z,59.59
2023-09-27T18:28:34.823Z,60.37
2023-09-27T18:31:22.223Z,61.00
2023-09-27T18:34:09.205Z,65.12
2023-09-27T18:36:56.022Z,68.03
2023-09-27T18:39:42.379Z,62.80
2023-09-27T18:42:29.381Z,57.19
2023-09-27T18:45:16.093Z,55.57
2023-09-27T18:48:09.226Z,56.45
2023-09-27T18:50:57.151Z,57.45
2023-09-27T18:53:43.777Z,58.73
2023-09-27T18:56:30.245Z,59.47
2023-09-27T18:59:17.233Z,60.59
2023-09-27T19:02:04.023Z,61.29
2023-09-27T19:04:51.127Z,66.31
2023-09-27T19:07:37.622Z,67.26
2023-09-27T19:10:25.030Z,60.59
2023-09-27T19:13:11.303Z,57.81
2023-09-27T19:15:58.020Z,58.35
2023-09-27T19:18:44.942Z,59.34
2023-09-27T19:21:31.432Z,60.50
2023-09-27T19:24:18.164Z,67.13
2023-09-27T19:27:05.587Z,66.44
2023-09-27T19:29:52.413Z,59.30
2023-09-27T19:32:38.921Z,57.41
2023-09-27T19:35:25.749Z,58.08
2023-09-27T19:38:13.236Z,58.74
2023-09-27T19:40:59.993Z,60.61
2023-09-27T19:43:46.876Z,63.86
2023-09-27T19:46:33.816Z,66.38
2023-09-27T19:49:20.694Z,63.57
2023-09-27T19:52:07.603Z,57.18
2023-09-27T19:54:54.164Z,55.75
2023-09-27T19:57:40.907Z,56.80
2023-09-27T20:00:27.668Z,58.27
2023-09-27T20:03:14.426Z,60.43
2023-09-27T20:06:03.424Z,64.88
2023-09-27T20:08:51.396Z,66.85
2023-09-27T20:11:38.627Z,63.52
2023-09-27T20:14:25.415Z,57.77
2023-09-27T20:17:12.356Z,56.04
2023-09-27T20:19:59.225Z,56.91
2023-09-27T20:22:46.172Z,58.02
2023-09-27T20:25:33.249Z,59.29
2023-09-27T20:28:19.938Z,66.29
2023-09-27T20:31:06.247Z,67.32
2023-09-27T20:33:53.473Z,62.22
2023-09-27T20:36:40.506Z,56.97
2023-09-27T20:39:27.112Z,56.13
2023-09-27T20:42:15.637Z,56.70
2023-09-27T20:45:02.189Z,60.21
2023-09-27T20:47:50.423Z,60.50
2023-09-27T20:50:37.696Z,65.51
2023-09-27T20:53:25.606Z,65.10
2023-09-27T20:56:12.285Z,58.61
2023-09-27T20:58:58.952Z,57.27
2023-09-27T21:01:47.431Z,59.14
2023-09-27T21:04:34.107Z,60.79
2023-09-27T21:07:20.999Z,65.23
2023-09-27T21:10:08.470Z,67.31
2023-09-27T21:12:54.714Z,63.36
2023-09-27T21:15:41.813Z,60.59
2023-09-27T21:18:28.330Z,56.03
2023-09-27T21:21:15.528Z,56.84
2023-09-27T21:24:01.852Z,58.34
2023-09-27T21:26:48.445Z,59.84
2023-09-27T21:29:37.500Z,67.04
2023-09-27T21:32:23.942Z,66.53
2023-09-27T21:35:11.955Z,62.36
2023-09-27T21:37:59.163Z,57.58
2023-09-27T21:40:52.801Z,56.72
2023-09-27T21:43:40.358Z,58.67
2023-09-27T21:46:27.518Z,61.99
2023-09-27T21:49:14.406Z,64.72
2023-09-27T21:52:00.830Z,62.72
2023-09-27T21:54:47.165Z,57.78
2023-09-27T21:57:33.839Z,58.21
2023-09-27T22:00:29.167Z,60.04
2023-09-27T22:03:18.532Z,61.92
2023-09-27T22:06:06.855Z,68.57
2023-09-27T22:08:54.628Z,64.45
2023-09-27T22:11:42.019Z,61.79
2023-09-27T22:14:28.553Z,56.94
2023-09-27T22:17:16.964Z,55.83
2023-09-27T22:20:20.213Z,57.31
2023-09-27T22:23:06.829Z,60.06
2023-09-27T22:25:55.051Z,64.61
2023-09-27T22:28:41.906Z,66.26
2023-09-27T22:31:31.539Z,62.61
2023-09-27T22:34:24.799Z,57.40
2023-09-27T22:37:11.666Z,56.08
2023-09-27T22:40:14.784Z,58.47
2023-09-27T22:43:06.524Z,62.13
2023-09-27T22:45:53.762Z,65.79
2023-09-27T22:48:40.449Z,65.56
2023-09-27T22:51:27.154Z,61.90
2023-09-27T22:54:15.889Z,56.70
2023-09-27T22:57:02.448Z,56.31
2023-09-27T22:59:49.668Z,58.86
2023-09-27T23:02:36.284Z,61.50
2023-09-27T23:05:41.272Z,63.73
2023-09-27T23:08:27.768Z,64.17
2023-09-27T23:11:14.386Z,60.30
2023-09-27T23:14:06.539Z,55.79
2023-09-27T23:17:13.374Z,56.58
2023-09-27T23:20:01.917Z,60.50
2023-09-27T23:22:58.564Z,62.87
2023-09-27T23:25:46.176Z,63.79
2023-09-27T23:28:41.637Z,61.49
2023-09-27T23:31:31.026Z,55.77
2023-09-27T23:34:17.671Z,56.53
2023-09-27T23:37:15.330Z,59.49
2023-09-27T23:40:02.464Z,61.56
2023-09-27T23:42:49.428Z,69.32
2023-09-27T23:45:36.061Z,64.75
2023-09-27T23:48:24.810Z,61.33
2023-09-27T23:51:11.626Z,56.76
2023-09-27T23:54:00.503Z,57.42
2023-09-27T23:56:47.270Z,61.24
2023-09-27T23:59:34.718Z,66.60
